Atlantis — PCDT — position and weather

sailwx.info

Track history (hours):
 
Tides and Currents Weather Stations Pressure Air Temp Water Temp Dewpoint Dewpoint Depression Visibility Wind Speed Wind Dir Waves Ship Positions

Atlantis (Netherlands)

Ship's website: http://www.tallship-company.com/artemis/gb_atlantis.htm

Last reported at 2018-May-23 05:49 UTC. Time now 2018-May-23 22:23 UTC.
Position N 54°22' E 010°09'.

Length 40 m; draft 4.5 m.

Type: Sailing vessel. MMSI: 246253000.

Date/timePositionNaut miles runAvg speedWind from/ knotsBaromVisibWave heightAir tempDewpointWater temp
2018-May-23 05:49N 54°22' E 010°09'0 0.0
2018-May-23 05:19N 54°22' E 010°09'0 0.0
2018-May-23 04:49N 54°22' E 010°09'0 0.0
2018-May-23 04:25N 54°22' E 010°09'0 0.0
2018-May-23 03:46N 54°22' E 010°09'0 0.0
2018-May-23 03:19N 54°22' E 010°09'0 0.0
2018-May-23 02:58N 54°22' E 010°09'0 0.0
2018-May-23 02:13N 54°22' E 010°09'0 0.0
2018-May-23 01:55N 54°22' E 010°09'0 0.0
2018-May-23 00:43N 54°22' E 010°09'0 0.0
2018-May-23 00:13N 54°22' E 010°09'0 0.0
2018-May-22 05:07N 54°22' E 010°09'0 0.0
2018-May-22 04:49N 54°22' E 010°09'0 0.0
2018-May-22 04:07N 54°22' E 010°09'0 0.0
2018-May-22 03:55N 54°22' E 010°09'12 0.7
2018-May-21 10:48N 54°32' E 010°20'2 7.4
2018-May-21 10:28N 54°34' E 010°22'3 7.1
2018-May-21 10:00N 54°36' E 010°26'3 6.7
2018-May-21 09:30N 54°39' E 010°30'3 6.0
2018-May-21 09:00N 54°41' E 010°33'2 3.7
2018-May-21 08:30N 54°43' E 010°36'2 3.5
2018-May-21 08:00N 54°44' E 010°38'2 3.3
2018-May-21 07:30N 54°45' E 010°39'0 0.9
2018-May-21 06:58N 54°45' E 010°40'0 0.0
2018-May-21 06:25N 54°45' E 010°40'0 0.0
2018-May-21 05:07N 54°45' E 010°40'0 0.0
2018-May-21 03:55N 54°45' E 010°40'0 0.0
2018-May-21 03:25N 54°45' E 010°40'0 0.0
2018-May-21 02:58N 54°45' E 010°40'0 0.0
2018-May-21 02:07N 54°45' E 010°40'0 0.0
2018-May-21 01:52N 54°45' E 010°40'0 0.0
2018-May-21 01:28N 54°45' E 010°40'0 0.0
2018-May-21 00:58N 54°45' E 010°40'0 0.0
2018-May-21 00:22N 54°45' E 010°40'0 0.0
2018-May-20 23:52N 54°45' E 010°40'0 0.0
2018-May-20 23:25N 54°45' E 010°40'0 0.0
2018-May-20 22:58N 54°45' E 010°40'0 0.0
2018-May-20 22:28N 54°45' E 010°40'0 0.0
2018-May-20 21:55N 54°45' E 010°40'0 0.0
2018-May-20 21:28N 54°45' E 010°40'0 0.0
2018-May-20 20:58N 54°45' E 010°40'0 0.0
2018-May-20 20:28N 54°45' E 010°40'0 0.0
2018-May-20 19:58N 54°45' E 010°40'0 0.0
2018-May-20 19:19N 54°45' E 010°40'0 0.0
2018-May-20 18:58N 54°45' E 010°40'0 0.1
2018-May-20 18:30N 54°45' E 010°40'2 3.6
2018-May-20 17:59N 54°45' E 010°37'19 2.6
2018-May-20 10:32N 54°37' E 010°07'0 3.2
2018-May-20 10:30N 54°37' E 010°07'2 3.4
2018-May-20 10:00N 54°35' E 010°06'2 3.7
2018-May-20 09:20N 54°33' E 010°05'9 4.8
2018-May-20 07:25N 54°28' E 009°51'9 0.5
2018-May-19 13:37N 54°30' E 010°06'0 1.4
2018-May-19 13:26N 54°30' E 010°06'1 1.3
2018-May-19 12:52N 54°30' E 010°07'1 1.6
2018-May-19 12:30N 54°30' E 010°08'4 1.4
2018-May-19 09:53N 54°29' E 010°14'  
2018-May-17 03:24N 54°22' E 010°09'0 0.0
2018-May-17 02:21N 54°22' E 010°09'0 0.0
2018-May-17 01:57N 54°22' E 010°09'0 0.0
2018-May-15 01:27N 54°22' E 010°09'0 0.0
2018-May-15 00:57N 54°22' E 010°09'0 0.0
2018-May-15 00:27N 54°22' E 010°09'0 0.0
2018-May-15 00:00N 54°22' E 010°09'11 1.0
2018-May-14 13:05N 54°22' E 009°50'1 7.7
2018-May-14 12:55N 54°22' E 009°48'2 5.1
2018-May-14 12:30N 54°20' E 009°45'3 6.8
2018-May-14 12:00N 54°18' E 009°41'3 6.4
2018-May-14 11:30N 54°16' E 009°37'3 5.2
2018-May-14 11:00N 54°13' E 009°36'4 7.3
2018-May-14 10:30N 54°11' E 009°30'4 7.6
2018-May-14 10:00N 54°10' E 009°24'5 6.9
2018-May-14 09:21N 54°06' E 009°20'3 7.9
2018-May-14 09:00N 54°03' E 009°19'4 7.0
2018-May-14 08:30N 53°60' E 009°18'4 7.7
2018-May-14 08:00N 53°57' E 009°14'2 3.5
2018-May-14 07:30N 53°55' E 009°12'3 5.1
2018-May-14 07:00N 53°54' E 009°09'0 0.8
2018-May-14 06:30N 53°53' E 009°09'4 9.0
2018-May-14 06:00N 53°52' E 009°16'5 9.5
2018-May-14 05:30N 53°49' E 009°22'510.2
2018-May-14 05:00N 53°44' E 009°26'5 9.4
2018-May-14 04:30N 53°40' E 009°31'5 9.4
2018-May-14 04:00N 53°37' E 009°35'5 9.3
2018-May-14 03:30N 53°34' E 009°41'4 8.4
2018-May-14 03:00N 53°33' E 009°48'0 0.1
2018-May-14 02:30N 53°33' E 009°48'0 0.1
2018-May-14 02:00N 53°33' E 009°48'0 0.1
2018-May-14 01:30N 53°33' E 009°48'0 0.0
2018-May-14 01:00N 53°33' E 009°48'0 0.0
2018-May-14 00:30N 53°33' E 009°48'0 0.0
2018-May-13 23:51N 53°33' E 009°48'0 0.0
2018-May-13 23:30N 53°33' E 009°48'0 0.0
2018-May-13 22:55N 53°33' E 009°48'0 0.0
2018-May-13 22:28N 53°33' E 009°48'0 0.0
2018-May-13 21:58N 53°33' E 009°48'0 0.0
2018-May-13 21:28N 53°33' E 009°48'0 0.0
2018-May-13 20:58N 53°33' E 009°48'0 0.0
2018-May-13 20:28N 53°33' E 009°48'0 0.0
2018-May-13 19:59N 53°33' E 009°48'3 6.9
2018-May-13 19:30N 53°33' E 009°54'2 4.3
2018-May-13 19:00N 53°33' E 009°57'1 2.5
2018-May-13 18:30N 53°32' E 009°55'3 5.9
2018-May-13 18:00N 53°33' E 009°50'1 2.2
2018-May-13 17:30N 53°33' E 009°48'3 5.4
2018-May-13 17:00N 53°33' E 009°53'3 6.3
2018-May-13 16:30N 53°33' E 009°58'1 1.9
2018-May-13 16:00N 53°32' E 009°60'0 0.0
2018-May-13 15:30N 53°32' E 009°60'1 1.4
2018-May-13 15:00N 53°32' E 009°59'0 1.0
2018-May-13 14:30N 53°32' E 009°59'1 1.2
2018-May-13 14:00N 53°33' E 009°58'1 1.7
2018-May-13 13:30N 53°32' E 009°57'2 3.0
2018-May-13 13:00N 53°32' E 009°55'2 3.1
2018-May-13 12:30N 53°33' E 009°52'2 4.8
2018-May-13 12:00N 53°33' E 009°48'0 0.0
2018-May-13 11:30N 53°33' E 009°48'0 0.0
2018-May-13 11:00N 53°33' E 009°48'1 2.7
2018-May-13 10:30N 53°33' E 009°51'1 2.8
2018-May-13 10:00N 53°33' E 009°48'0 0.0
2018-May-13 09:30N 53°33' E 009°48'0 0.0
2018-May-13 09:00N 53°33' E 009°48'0 0.0
2018-May-13 08:30N 53°33' E 009°48'0 0.0
2018-May-13 08:00N 53°33' E 009°48'0 0.0
2018-May-13 07:30N 53°33' E 009°48'0 0.0
2018-May-13 07:00N 53°33' E 009°48'0 0.0
2018-May-13 06:30N 53°33' E 009°48'0 0.0
2018-May-13 06:00N 53°33' E 009°48'  
Track history (hours):
 
Tides and Currents Weather Stations Pressure Air Temp Water Temp Dewpoint Dewpoint Depression Visibility Wind Speed Wind Dir Waves Ship Positions

Atlantis (Netherlands)

Ship's website: http://www.tallship-company.com/artemis/gb_atlantis.htm

Last reported at 2018-May-23 05:49 UTC. Time now 2018-May-23 22:23 UTC.
Position N 54°22' E 010°09'.

Length 40 m; draft 4.5 m.

Type: Sailing vessel. MMSI: 246253000.

Date/timePositionNaut miles runAvg speedWind from/ knotsBaromVisibWave heightAir tempDewpointWater temp
2018-May-23 05:49N 54°22' E 010°09'0 0.0
2018-May-23 05:19N 54°22' E 010°09'0 0.0
2018-May-23 04:49N 54°22' E 010°09'0 0.0
2018-May-23 04:25N 54°22' E 010°09'0 0.0
2018-May-23 03:46N 54°22' E 010°09'0 0.0
2018-May-23 03:19N 54°22' E 010°09'0 0.0
2018-May-23 02:58N 54°22' E 010°09'0 0.0
2018-May-23 02:13N 54°22' E 010°09'0 0.0
2018-May-23 01:55N 54°22' E 010°09'0 0.0
2018-May-23 00:43N 54°22' E 010°09'0 0.0
2018-May-23 00:13N 54°22' E 010°09'0 0.0
2018-May-22 05:07N 54°22' E 010°09'0 0.0
2018-May-22 04:49N 54°22' E 010°09'0 0.0
2018-May-22 04:07N 54°22' E 010°09'0 0.0
2018-May-22 03:55N 54°22' E 010°09'12 0.7
2018-May-21 10:48N 54°32' E 010°20'2 7.4
2018-May-21 10:28N 54°34' E 010°22'3 7.1
2018-May-21 10:00N 54°36' E 010°26'3 6.7
2018-May-21 09:30N 54°39' E 010°30'3 6.0
2018-May-21 09:00N 54°41' E 010°33'2 3.7
2018-May-21 08:30N 54°43' E 010°36'2 3.5
2018-May-21 08:00N 54°44' E 010°38'2 3.3
2018-May-21 07:30N 54°45' E 010°39'0 0.9
2018-May-21 06:58N 54°45' E 010°40'0 0.0
2018-May-21 06:25N 54°45' E 010°40'0 0.0
2018-May-21 05:07N 54°45' E 010°40'0 0.0
2018-May-21 03:55N 54°45' E 010°40'0 0.0
2018-May-21 03:25N 54°45' E 010°40'0 0.0
2018-May-21 02:58N 54°45' E 010°40'0 0.0
2018-May-21 02:07N 54°45' E 010°40'0 0.0
2018-May-21 01:52N 54°45' E 010°40'0 0.0
2018-May-21 01:28N 54°45' E 010°40'0 0.0
2018-May-21 00:58N 54°45' E 010°40'0 0.0
2018-May-21 00:22N 54°45' E 010°40'0 0.0
2018-May-20 23:52N 54°45' E 010°40'0 0.0
2018-May-20 23:25N 54°45' E 010°40'0 0.0
2018-May-20 22:58N 54°45' E 010°40'0 0.0
2018-May-20 22:28N 54°45' E 010°40'0 0.0
2018-May-20 21:55N 54°45' E 010°40'0 0.0
2018-May-20 21:28N 54°45' E 010°40'0 0.0
2018-May-20 20:58N 54°45' E 010°40'0 0.0
2018-May-20 20:28N 54°45' E 010°40'0 0.0
2018-May-20 19:58N 54°45' E 010°40'0 0.0
2018-May-20 19:19N 54°45' E 010°40'0 0.0
2018-May-20 18:58N 54°45' E 010°40'0 0.1
2018-May-20 18:30N 54°45' E 010°40'2 3.6
2018-May-20 17:59N 54°45' E 010°37'19 2.6
2018-May-20 10:32N 54°37' E 010°07'0 3.2
2018-May-20 10:30N 54°37' E 010°07'2 3.4
2018-May-20 10:00N 54°35' E 010°06'2 3.7
2018-May-20 09:20N 54°33' E 010°05'9 4.8
2018-May-20 07:25N 54°28' E 009°51'9 0.5
2018-May-19 13:37N 54°30' E 010°06'0 1.4
2018-May-19 13:26N 54°30' E 010°06'1 1.3
2018-May-19 12:52N 54°30' E 010°07'1 1.6
2018-May-19 12:30N 54°30' E 010°08'4 1.4
2018-May-19 09:53N 54°29' E 010°14'  
2018-May-17 03:24N 54°22' E 010°09'0 0.0
2018-May-17 02:21N 54°22' E 010°09'0 0.0
2018-May-17 01:57N 54°22' E 010°09'0 0.0
2018-May-15 01:27N 54°22' E 010°09'0 0.0
2018-May-15 00:57N 54°22' E 010°09'0 0.0
2018-May-15 00:27N 54°22' E 010°09'0 0.0
2018-May-15 00:00N 54°22' E 010°09'11 1.0
2018-May-14 13:05N 54°22' E 009°50'1 7.7
2018-May-14 12:55N 54°22' E 009°48'2 5.1
2018-May-14 12:30N 54°20' E 009°45'3 6.8
2018-May-14 12:00N 54°18' E 009°41'3 6.4
2018-May-14 11:30N 54°16' E 009°37'3 5.2
2018-May-14 11:00N 54°13' E 009°36'4 7.3
2018-May-14 10:30N 54°11' E 009°30'4 7.6
2018-May-14 10:00N 54°10' E 009°24'5 6.9
2018-May-14 09:21N 54°06' E 009°20'3 7.9
2018-May-14 09:00N 54°03' E 009°19'4 7.0
2018-May-14 08:30N 53°60' E 009°18'4 7.7
2018-May-14 08:00N 53°57' E 009°14'2 3.5
2018-May-14 07:30N 53°55' E 009°12'3 5.1
2018-May-14 07:00N 53°54' E 009°09'0 0.8
2018-May-14 06:30N 53°53' E 009°09'4 9.0
2018-May-14 06:00N 53°52' E 009°16'5 9.5
2018-May-14 05:30N 53°49' E 009°22'510.2
2018-May-14 05:00N 53°44' E 009°26'5 9.4
2018-May-14 04:30N 53°40' E 009°31'5 9.4
2018-May-14 04:00N 53°37' E 009°35'5 9.3
2018-May-14 03:30N 53°34' E 009°41'4 8.4
2018-May-14 03:00N 53°33' E 009°48'0 0.1
2018-May-14 02:30N 53°33' E 009°48'0 0.1
2018-May-14 02:00N 53°33' E 009°48'0 0.1
2018-May-14 01:30N 53°33' E 009°48'0 0.0
2018-May-14 01:00N 53°33' E 009°48'0 0.0
2018-May-14 00:30N 53°33' E 009°48'0 0.0
2018-May-13 23:51N 53°33' E 009°48'0 0.0
2018-May-13 23:30N 53°33' E 009°48'0 0.0
2018-May-13 22:55N 53°33' E 009°48'0 0.0
2018-May-13 22:28N 53°33' E 009°48'0 0.0
2018-May-13 21:58N 53°33' E 009°48'0 0.0
2018-May-13 21:28N 53°33' E 009°48'0 0.0
2018-May-13 20:58N 53°33' E 009°48'0 0.0
2018-May-13 20:28N 53°33' E 009°48'0 0.0
2018-May-13 19:59N 53°33' E 009°48'3 6.9
2018-May-13 19:30N 53°33' E 009°54'2 4.3
2018-May-13 19:00N 53°33' E 009°57'1 2.5
2018-May-13 18:30N 53°32' E 009°55'3 5.9
2018-May-13 18:00N 53°33' E 009°50'1 2.2
2018-May-13 17:30N 53°33' E 009°48'3 5.4
2018-May-13 17:00N 53°33' E 009°53'3 6.3
2018-May-13 16:30N 53°33' E 009°58'1 1.9
2018-May-13 16:00N 53°32' E 009°60'0 0.0
2018-May-13 15:30N 53°32' E 009°60'1 1.4
2018-May-13 15:00N 53°32' E 009°59'0 1.0
2018-May-13 14:30N 53°32' E 009°59'1 1.2
2018-May-13 14:00N 53°33' E 009°58'1 1.7
2018-May-13 13:30N 53°32' E 009°57'2 3.0
2018-May-13 13:00N 53°32' E 009°55'2 3.1
2018-May-13 12:30N 53°33' E 009°52'2 4.8
2018-May-13 12:00N 53°33' E 009°48'0 0.0
2018-May-13 11:30N 53°33' E 009°48'0 0.0
2018-May-13 11:00N 53°33' E 009°48'1 2.7
2018-May-13 10:30N 53°33' E 009°51'1 2.8
2018-May-13 10:00N 53°33' E 009°48'0 0.0
2018-May-13 09:30N 53°33' E 009°48'0 0.0
2018-May-13 09:00N 53°33' E 009°48'0 0.0
2018-May-13 08:30N 53°33' E 009°48'0 0.0
2018-May-13 08:00N 53°33' E 009°48'0 0.0
2018-May-13 07:30N 53°33' E 009°48'0 0.0
2018-May-13 07:00N 53°33' E 009°48'0 0.0
2018-May-13 06:30N 53°33' E 009°48'0 0.0
2018-May-13 06:00N 53°33' E 009°48'  

Dump ship's entire track history